createdAt,value
2023-03-08T00:00:55.911Z,6.10
2023-03-08T00:02:28.644Z,6.28
2023-03-08T00:04:01.577Z,7.35
2023-03-08T00:05:38.362Z,6.43
2023-03-08T00:07:11.093Z,5.38
2023-03-08T00:08:44.216Z,6.85
2023-03-08T00:10:17.084Z,5.57
2023-03-08T00:11:49.839Z,6.15
2023-03-08T00:13:22.520Z,5.13
2023-03-08T00:14:55.222Z,6.10
2023-03-08T00:16:28.171Z,6.55
2023-03-08T00:18:00.923Z,5.97
2023-03-08T00:19:33.937Z,5.85
2023-03-08T00:21:10.450Z,6.90
2023-03-08T00:22:43.845Z,7.75
2023-03-08T00:24:17.625Z,5.60
2023-03-08T00:25:52.078Z,6.97
2023-03-08T00:27:24.836Z,6.28
2023-03-08T00:28:57.730Z,6.47
2023-03-08T00:30:32.925Z,6.20
2023-03-08T00:32:05.804Z,5.65
2023-03-08T00:33:38.214Z,4.85
2023-03-08T00:35:11.260Z,4.88
2023-03-08T00:36:45.323Z,5.20
2023-03-08T00:38:17.066Z,4.82
2023-03-08T00:39:52.073Z,5.43
2023-03-08T00:41:24.989Z,4.60
2023-03-08T00:42:56.728Z,5.28
2023-03-08T00:44:29.420Z,5.00
2023-03-08T00:46:01.263Z,4.55
2023-03-08T00:47:35.373Z,5.63
2023-03-08T00:49:08.109Z,5.70
2023-03-08T00:50:40.846Z,6.15
2023-03-08T00:52:14.872Z,4.20
2023-03-08T00:53:47.976Z,4.50
2023-03-08T00:55:20.682Z,4.72
2023-03-08T00:56:53.393Z,5.95
2023-03-08T00:58:28.487Z,3.78
2023-03-08T01:00:01.246Z,5.80
2023-03-08T01:01:34.108Z,4.57
2023-03-08T01:03:06.854Z,5.45
2023-03-08T01:04:39.555Z,4.20
2023-03-08T01:06:15.389Z,4.97
2023-03-08T01:07:49.436Z,5.57
2023-03-08T01:09:22.143Z,5.00
2023-03-08T01:10:57.519Z,5.50
2023-03-08T01:12:30.362Z,5.07
2023-03-08T01:14:03.204Z,4.70
2023-03-08T01:15:36.885Z,5.15
2023-03-08T01:17:09.574Z,4.47
2023-03-08T01:18:41.311Z,4.53
2023-03-08T01:20:14.429Z,4.85
2023-03-08T01:21:47.135Z,6.15
2023-03-08T01:23:21.147Z,4.70
2023-03-08T01:24:52.884Z,4.50
2023-03-08T01:26:27.819Z,5.15
2023-03-08T01:27:59.654Z,6.13
2023-03-08T01:29:32.330Z,5.80
2023-03-08T01:31:05.927Z,5.40
2023-03-08T01:32:38.661Z,5.85
2023-03-08T01:34:11.399Z,5.47
2023-03-08T01:35:43.264Z,4.78
2023-03-08T01:37:16.028Z,5.45
2023-03-08T01:38:50.264Z,8.18
2023-03-08T01:40:23.387Z,7.13
2023-03-08T01:41:56.106Z,7.13
2023-03-08T01:43:31.042Z,6.63
2023-03-08T01:45:06.528Z,8.52
2023-03-08T01:46:39.241Z,9.38
2023-03-08T01:48:12.292Z,10.32
2023-03-08T01:49:45.022Z,9.75
2023-03-08T01:51:21.181Z,9.35
2023-03-08T01:52:56.378Z,9.93
2023-03-08T01:54:36.004Z,6.35
2023-03-08T01:56:12.457Z,6.50
2023-03-08T01:57:48.631Z,7.78
2023-03-08T01:59:23.804Z,7.22
2023-03-08T02:00:55.590Z,7.43
2023-03-08T02:02:34.571Z,6.97
2023-03-08T02:04:07.909Z,7.28
2023-03-08T02:05:43.027Z,6.82
2023-03-08T02:07:16.051Z,7.25
2023-03-08T02:08:48.851Z,8.52
2023-03-08T02:10:22.500Z,8.93
2023-03-08T02:11:59.229Z,10.93
2023-03-08T02:13:31.317Z,11.65
2023-03-08T02:15:05.859Z,9.95
2023-03-08T02:16:39.279Z,10.57
2023-03-08T02:18:11.107Z,9.02
2023-03-08T02:19:49.362Z,11.15
2023-03-08T02:21:21.466Z,12.73
2023-03-08T02:22:55.789Z,9.73
2023-03-08T02:24:28.462Z,11.95
2023-03-08T02:26:04.445Z,11.05
2023-03-08T02:27:37.132Z,10.52
2023-03-08T02:29:09.826Z,11.60
2023-03-08T02:30:41.571Z,13.02
2023-03-08T02:32:15.779Z,13.55
2023-03-08T02:33:48.507Z,13.13
2023-03-08T02:35:20.362Z,14.85
2023-03-08T02:36:53.354Z,14.73
2023-03-08T02:38:27.367Z,15.45
2023-03-08T02:40:00.163Z,11.57
2023-03-08T02:41:32.834Z,13.18
2023-03-08T02:43:05.112Z,15.85
2023-03-08T02:44:37.784Z,14.25
2023-03-08T02:46:12.411Z,13.20
2023-03-08T02:47:44.162Z,14.10
2023-03-08T02:49:16.870Z,13.30
2023-03-08T02:50:49.613Z,13.82
2023-03-08T02:52:22.360Z,12.35
2023-03-08T02:53:55.434Z,13.75
2023-03-08T02:55:28.117Z,15.02
2023-03-08T02:57:00.815Z,12.90
2023-03-08T02:58:32.562Z,13.85
2023-03-08T03:00:06.000Z,17.77
2023-03-08T03:01:38.722Z,13.07
2023-03-08T03:03:10.515Z,16.67
2023-03-08T03:04:43.202Z,13.32
2023-03-08T03:06:17.244Z,14.15
2023-03-08T03:07:50.336Z,16.10
2023-03-08T03:09:45.157Z,15.13
2023-03-08T03:11:19.834Z,13.68
2023-03-08T03:16:18.687Z,13.85
2023-03-08T03:17:51.416Z,12.52
2023-03-08T03:19:23.160Z,14.32
2023-03-08T03:20:55.870Z,15.00
2023-03-08T03:22:29.076Z,15.35
2023-03-08T03:24:01.782Z,13.80
2023-03-08T03:25:39.083Z,13.75
2023-03-08T03:27:11.814Z,14.65
2023-03-08T03:28:44.741Z,13.90
2023-03-08T03:30:17.596Z,14.73
2023-03-08T03:31:50.340Z,14.18
2023-03-08T03:33:23.042Z,16.60
2023-03-08T03:34:54.876Z,16.05
2023-03-08T03:36:27.617Z,14.50
2023-03-08T03:38:00.346Z,13.77
2023-03-08T03:39:35.518Z,14.35
2023-03-08T03:41:12.071Z,16.13
2023-03-08T03:42:44.776Z,13.63
2023-03-08T03:44:16.590Z,15.73
2023-03-08T03:45:56.660Z,16.08
2023-03-08T03:47:30.039Z,13.60
2023-03-08T03:49:02.814Z,14.73
2023-03-08T03:50:35.513Z,14.55
2023-03-08T03:52:08.225Z,15.45
2023-03-08T03:53:40.208Z,13.40
2023-03-08T03:55:12.924Z,15.45
2023-03-08T03:56:46.958Z,15.40
2023-03-08T03:58:18.714Z,15.00
2023-03-08T03:59:51.418Z,14.68
2023-03-08T04:01:26.618Z,15.30
2023-03-08T04:02:59.334Z,14.63
2023-03-08T04:04:32.049Z,14.73
2023-03-08T04:06:09.439Z,14.50
2023-03-08T04:07:42.177Z,17.42
2023-03-08T04:09:15.591Z,19.80
2023-03-08T04:10:48.287Z,22.05
2023-03-08T04:12:22.372Z,27.80
2023-03-08T04:13:55.567Z,35.63
2023-03-08T04:15:28.817Z,57.05
2023-03-08T04:17:01.590Z,44.53
2023-03-08T04:18:34.282Z,20.33
2023-03-08T04:20:08.459Z,15.07
2023-03-08T04:21:41.177Z,15.15
2023-03-08T04:23:12.958Z,19.17
2023-03-08T04:24:45.640Z,16.50
2023-03-08T04:26:18.673Z,17.08
2023-03-08T04:27:52.715Z,17.85
2023-03-08T04:29:25.489Z,16.63
2023-03-08T04:30:58.232Z,16.77
2023-03-08T04:32:32.604Z,15.77
2023-03-08T04:34:05.786Z,15.73
2023-03-08T04:35:38.550Z,15.20
2023-03-08T04:37:12.529Z,15.48
2023-03-08T04:38:46.517Z,18.88
2023-03-08T04:40:19.487Z,13.90
2023-03-08T04:41:52.185Z,16.25
2023-03-08T04:43:25.330Z,17.23
2023-03-08T04:44:58.036Z,15.30
2023-03-08T04:46:30.908Z,15.45
2023-03-08T04:48:02.709Z,16.00
2023-03-08T04:49:35.410Z,15.25
2023-03-08T04:51:09.486Z,16.17
2023-03-08T04:52:42.193Z,15.50
2023-03-08T04:54:14.894Z,14.75
2023-03-08T04:55:46.636Z,16.80
2023-03-08T04:57:20.937Z,16.95
2023-03-08T04:58:55.031Z,15.68
2023-03-08T05:00:26.782Z,15.90
2023-03-08T05:01:59.520Z,18.55
2023-03-08T05:03:32.229Z,21.35
2023-03-08T05:05:05.561Z,14.13
2023-03-08T05:06:38.564Z,14.65
2023-03-08T05:08:11.275Z,15.90
2023-03-08T05:09:44.031Z,14.80
2023-03-08T05:11:20.249Z,17.08
2023-03-08T05:12:52.991Z,15.98
2023-03-08T05:14:27.247Z,13.65
2023-03-08T05:16:00.123Z,15.82
2023-03-08T05:17:32.876Z,14.95
2023-03-08T05:19:05.657Z,16.75
2023-03-08T05:20:38.403Z,15.88
2023-03-08T05:22:11.152Z,14.98
2023-03-08T05:23:44.076Z,14.70
2023-03-08T05:25:15.927Z,17.00
2023-03-08T05:26:48.662Z,16.15
2023-03-08T05:28:21.747Z,18.10
2023-03-08T05:29:55.801Z,17.45
2023-03-08T05:31:28.872Z,17.48
2023-03-08T05:33:00.814Z,16.10
2023-03-08T05:34:33.525Z,15.27
2023-03-08T05:36:07.923Z,16.77
2023-03-08T05:37:40.084Z,15.15
2023-03-08T05:39:12.795Z,15.65
2023-03-08T05:40:45.500Z,14.35
2023-03-08T05:42:18.316Z,17.58
2023-03-08T05:43:50.994Z,17.77
2023-03-08T05:45:25.091Z,15.80
2023-03-08T05:46:57.821Z,16.15
2023-03-08T05:48:31.725Z,15.75
2023-03-08T05:50:03.990Z,14.38
2023-03-08T05:51:36.690Z,16.60
2023-03-08T05:53:09.447Z,15.25
2023-03-08T05:54:41.251Z,14.40
2023-03-08T05:56:15.625Z,15.85
2023-03-08T05:57:48.338Z,17.77
2023-03-08T05:59:21.061Z,16.02
2023-03-08T06:00:55.120Z,15.40
2023-03-08T06:02:29.747Z,15.65
2023-03-08T06:04:02.506Z,16.05
2023-03-08T06:05:35.609Z,18.30
2023-03-08T06:07:07.365Z,16.50
2023-03-08T06:08:40.174Z,16.38
2023-03-08T06:10:13.116Z,14.75
2023-03-08T06:11:45.826Z,15.35
2023-03-08T06:13:18.529Z,16.00
2023-03-08T06:14:51.207Z,15.38
2023-03-08T06:16:25.439Z,16.75
2023-03-08T06:17:58.207Z,16.48
2023-03-08T06:19:31.063Z,14.90
2023-03-08T06:21:05.943Z,19.63
2023-03-08T06:22:38.785Z,17.08
2023-03-08T06:24:11.545Z,14.48
2023-03-08T06:25:44.981Z,14.45
2023-03-08T06:27:18.325Z,15.10
2023-03-08T06:28:51.047Z,14.35
2023-03-08T06:30:23.924Z,14.90
2023-03-08T06:31:59.023Z,15.30
2023-03-08T06:33:34.387Z,15.75
2023-03-08T06:35:07.996Z,16.35
2023-03-08T06:36:40.941Z,16.90
2023-03-08T06:38:13.621Z,14.43
2023-03-08T06:39:46.400Z,15.25
2023-03-08T06:41:20.773Z,15.60
2023-03-08T06:42:53.512Z,16.38
2023-03-08T06:44:26.424Z,14.55
2023-03-08T06:45:59.251Z,15.32
2023-03-08T06:47:33.472Z,14.68
2023-03-08T06:49:07.692Z,14.93
2023-03-08T06:50:40.402Z,15.20
2023-03-08T06:52:13.112Z,14.15
2023-03-08T06:53:46.248Z,15.23
2023-03-08T06:55:19.096Z,15.60
2023-03-08T06:56:51.814Z,17.05
2023-03-08T06:58:24.540Z,13.75
2023-03-08T06:59:57.338Z,14.93
2023-03-08T07:01:30.114Z,15.13
2023-03-08T07:03:04.270Z,16.10
2023-03-08T07:04:37.069Z,15.10
2023-03-08T07:06:10.889Z,14.23
2023-03-08T07:07:43.881Z,15.07
2023-03-08T07:09:16.646Z,16.05
2023-03-08T07:10:49.408Z,15.20
2023-03-08T07:12:22.160Z,13.45
2023-03-08T07:13:54.917Z,14.93
2023-03-08T07:15:27.828Z,13.45
2023-03-08T07:17:00.727Z,16.50
2023-03-08T07:18:34.767Z,13.63
2023-03-08T07:20:09.205Z,17.67
2023-03-08T07:21:44.314Z,15.13
2023-03-08T07:23:17.102Z,13.98
2023-03-08T07:24:49.872Z,17.65
2023-03-08T07:26:22.587Z,16.00
2023-03-08T07:27:55.472Z,14.85
2023-03-08T07:29:27.396Z,16.25
2023-03-08T07:31:00.153Z,15.25
2023-03-08T07:32:33.053Z,15.27
2023-03-08T07:34:07.183Z,18.13
2023-03-08T07:35:40.214Z,18.08
2023-03-08T07:37:13.565Z,16.42
2023-03-08T07:38:47.197Z,19.02
2023-03-08T07:40:20.508Z,18.08
2023-03-08T07:41:53.324Z,18.08
2023-03-08T07:43:26.245Z,18.00
2023-03-08T07:44:58.982Z,16.25
2023-03-08T07:46:31.939Z,17.20
2023-03-08T07:48:04.965Z,17.60
2023-03-08T07:49:39.146Z,20.73
2023-03-08T07:51:12.265Z,19.67
2023-03-08T07:52:45.138Z,21.55
2023-03-08T07:54:17.871Z,19.77
2023-03-08T07:55:50.595Z,18.92
2023-03-08T07:57:23.783Z,19.20
2023-03-08T07:58:57.507Z,23.67
2023-03-08T08:00:30.385Z,18.58
2023-03-08T08:02:03.251Z,19.85
2023-03-08T08:03:37.690Z,20.08
2023-03-08T08:05:11.928Z,20.92
2023-03-08T08:06:45.250Z,22.30
2023-03-08T08:08:18.166Z,21.60
2023-03-08T08:09:50.884Z,21.70
2023-03-08T08:11:23.992Z,21.75
2023-03-08T08:12:56.708Z,21.02
2023-03-08T08:14:29.379Z,22.38
2023-03-08T08:16:03.813Z,21.45
2023-03-08T08:17:36.568Z,25.48
2023-03-08T08:19:12.285Z,24.83
2023-03-08T08:20:46.340Z,22.85
2023-03-08T08:22:19.146Z,21.25
2023-03-08T08:23:51.883Z,23.92
2023-03-08T08:25:24.610Z,23.27
2023-03-08T08:26:57.345Z,22.48
2023-03-08T08:28:30.051Z,22.33
2023-03-08T08:30:02.851Z,21.15
2023-03-08T08:31:35.695Z,26.20
2023-03-08T08:33:08.437Z,26.08
2023-03-08T08:34:41.210Z,26.90
2023-03-08T08:36:17.605Z,23.65
2023-03-08T08:37:50.419Z,23.85
2023-03-08T08:39:23.570Z,22.05
2023-03-08T08:40:59.260Z,25.42
2023-03-08T08:42:31.984Z,23.33
2023-03-08T08:44:05.194Z,25.55
2023-03-08T08:45:38.025Z,26.45
2023-03-08T08:47:10.819Z,24.25
2023-03-08T08:48:43.754Z,26.23
2023-03-08T08:50:16.542Z,27.48
2023-03-08T08:51:50.584Z,26.25
2023-03-08T08:53:23.529Z,27.15
2023-03-08T08:54:56.726Z,26.58
2023-03-08T08:56:30.341Z,23.25
2023-03-08T08:58:03.996Z,25.27
2023-03-08T08:59:36.752Z,26.67
2023-03-08T09:01:15.701Z,23.80
2023-03-08T09:02:48.555Z,27.70
2023-03-08T09:04:21.578Z,25.88
2023-03-08T09:05:54.395Z,23.48
2023-03-08T09:07:28.504Z,30.20
2023-03-08T09:09:01.444Z,24.83
2023-03-08T09:10:36.319Z,23.60
2023-03-08T09:12:09.577Z,27.80
2023-03-08T09:13:42.338Z,24.45
2023-03-08T09:15:15.087Z,23.52
2023-03-08T09:16:47.811Z,27.55
2023-03-08T09:18:20.559Z,23.27
2023-03-08T09:19:53.280Z,24.83
2023-03-08T09:21:27.078Z,22.23
2023-03-08T09:23:01.192Z,28.08
2023-03-08T09:24:33.974Z,25.85
2023-03-08T09:26:07.005Z,25.15
2023-03-08T09:27:41.190Z,28.08
2023-03-08T09:29:13.937Z,23.88
2023-03-08T09:30:46.620Z,26.02
2023-03-08T09:32:19.410Z,28.67
2023-03-08T09:33:52.867Z,26.58
2023-03-08T09:35:25.689Z,23.48
2023-03-08T09:36:58.478Z,27.63
2023-03-08T09:38:32.582Z,26.80
2023-03-08T09:40:09.438Z,28.58
2023-03-08T09:41:54.906Z,23.63
2023-03-08T09:43:34.469Z,23.85
2023-03-08T09:45:20.679Z,24.08
2023-03-08T09:46:57.713Z,21.58
2023-03-08T09:48:32.271Z,25.85
2023-03-08T09:50:17.181Z,23.92
2023-03-08T09:51:59.104Z,22.02
2023-03-08T09:53:36.201Z,21.10
2023-03-08T09:55:28.262Z,19.98
2023-03-08T09:57:08.783Z,20.63
2023-03-08T09:58:45.129Z,24.85
2023-03-08T10:00:21.999Z,19.80
2023-03-08T10:02:01.279Z,19.02
2023-03-08T10:04:07.040Z,19.05
2023-03-08T10:05:44.419Z,18.80
2023-03-08T10:07:25.229Z,17.27
2023-03-08T10:09:04.259Z,21.52
2023-03-08T10:10:47.929Z,18.48
2023-03-08T10:12:29.285Z,18.65
2023-03-08T10:14:08.048Z,21.13
2023-03-08T10:15:45.002Z,20.83
2023-03-08T10:17:21.473Z,24.50
2023-03-08T10:18:58.374Z,22.85
2023-03-08T10:20:33.680Z,20.70
2023-03-08T10:22:14.859Z,25.38
2023-03-08T10:23:49.537Z,22.13
2023-03-08T10:25:26.838Z,22.50
2023-03-08T10:27:14.438Z,21.55
2023-03-08T10:28:47.142Z,23.77
2023-03-08T10:30:23.430Z,22.98
2023-03-08T10:31:56.127Z,25.20
2023-03-08T10:33:35.041Z,23.17
2023-03-08T10:35:08.363Z,22.08
2023-03-08T10:36:50.220Z,23.77
2023-03-08T10:38:23.503Z,25.75
2023-03-08T10:39:59.648Z,22.05
2023-03-08T10:41:38.478Z,23.15
2023-03-08T10:43:20.745Z,22.23
2023-03-08T10:44:56.618Z,22.90
2023-03-08T10:46:32.805Z,22.15
2023-03-08T10:48:07.310Z,23.88
2023-03-08T10:49:40.027Z,22.65
2023-03-08T10:51:18.138Z,22.55
2023-03-08T10:52:51.988Z,24.95
2023-03-08T10:54:25.535Z,24.98
2023-03-08T10:56:00.682Z,26.17
2023-03-08T10:57:35.183Z,23.80
2023-03-08T10:59:19.356Z,23.02
2023-03-08T11:00:56.581Z,21.98
2023-03-08T11:02:29.383Z,20.80
2023-03-08T11:04:03.596Z,20.70
2023-03-08T11:05:36.317Z,22.05
2023-03-08T11:07:12.637Z,19.85
2023-03-08T11:08:54.250Z,18.35
2023-03-08T11:10:28.217Z,20.17
2023-03-08T11:12:01.549Z,19.65
2023-03-08T11:13:38.321Z,21.92
2023-03-08T11:15:15.175Z,21.38
2023-03-08T11:17:04.335Z,22.52
2023-03-08T11:18:49.883Z,19.15
2023-03-08T11:20:28.421Z,18.63
2023-03-08T11:22:11.787Z,19.73
2023-03-08T11:23:51.085Z,19.42
2023-03-08T11:25:45.270Z,23.27
2023-03-08T11:27:33.103Z,19.63
2023-03-08T11:29:19.176Z,21.23
2023-03-08T11:31:05.228Z,23.63
2023-03-08T11:32:51.142Z,22.88
2023-03-08T11:34:43.922Z,22.52
2023-03-08T11:36:23.284Z,21.33
2023-03-08T11:38:03.488Z,21.83
2023-03-08T11:39:40.872Z,20.38
2023-03-08T11:41:25.245Z,20.75
2023-03-08T11:43:16.489Z,21.48
2023-03-08T11:45:07.967Z,20.27
2023-03-08T11:46:55.610Z,19.95
2023-03-08T11:48:40.617Z,20.42
2023-03-08T11:50:21.585Z,20.92
2023-03-08T11:52:01.009Z,19.88
2023-03-08T11:53:47.915Z,23.85
2023-03-08T11:55:34.146Z,20.90
2023-03-08T11:57:10.735Z,20.77
2023-03-08T11:58:49.378Z,21.83
2023-03-08T12:00:29.166Z,21.30
2023-03-08T12:02:05.267Z,22.65
2023-03-08T12:03:41.199Z,24.10
2023-03-08T12:05:17.021Z,22.63
2023-03-08T12:06:50.509Z,22.45
2023-03-08T12:08:28.424Z,20.73
2023-03-08T12:10:07.990Z,24.38
2023-03-08T12:11:45.323Z,21.48
2023-03-08T12:13:22.332Z,22.35
2023-03-08T12:15:00.077Z,23.63
2023-03-08T12:16:41.695Z,23.52
2023-03-08T12:18:21.261Z,24.13
2023-03-08T12:19:54.627Z,22.48
2023-03-08T12:21:36.362Z,24.88
2023-03-08T12:23:20.531Z,24.08
2023-03-08T12:24:58.698Z,22.35
2023-03-08T12:26:37.118Z,20.83
2023-03-08T12:28:17.601Z,23.52
2023-03-08T12:29:57.026Z,23.30
2023-03-08T12:31:32.772Z,20.48
2023-03-08T12:33:10.038Z,22.83
2023-03-08T12:34:46.080Z,21.13
2023-03-08T12:36:22.294Z,21.58
2023-03-08T12:38:00.453Z,20.40
2023-03-08T12:39:35.187Z,18.35
2023-03-08T12:41:23.237Z,19.60
2023-03-08T12:43:06.119Z,20.73
2023-03-08T12:44:40.194Z,19.67
2023-03-08T12:46:13.004Z,21.00
2023-03-08T12:47:56.838Z,17.23
2023-03-08T12:49:33.512Z,17.17
2023-03-08T12:51:18.577Z,15.82
2023-03-08T12:52:51.565Z,16.08
2023-03-08T12:54:24.720Z,16.20
2023-03-08T12:56:02.005Z,16.80
2023-03-08T12:57:42.789Z,14.65
2023-03-08T12:59:33.865Z,12.68
2023-03-08T13:01:08.465Z,10.80
2023-03-08T13:02:41.274Z,12.32
2023-03-08T13:04:39.944Z,12.13
2023-03-08T13:06:51.610Z,12.20
2023-03-08T13:08:35.341Z,11.68
2023-03-08T13:10:20.209Z,10.00
2023-03-08T13:11:59.660Z,9.55
2023-03-08T13:13:44.192Z,9.80
2023-03-08T13:15:23.169Z,10.55
2023-03-08T13:16:55.896Z,11.30
2023-03-08T13:18:28.666Z,10.63
2023-03-08T13:20:06.941Z,10.65
2023-03-08T13:21:48.311Z,9.65
2023-03-08T13:23:28.854Z,10.60
2023-03-08T13:25:07.778Z,12.68
2023-03-08T13:26:58.713Z,11.75
2023-03-08T13:28:46.504Z,8.98
2023-03-08T13:30:25.512Z,10.00
2023-03-08T13:31:58.564Z,11.02
2023-03-08T13:33:34.309Z,10.57
2023-03-08T13:35:07.700Z,11.07
2023-03-08T13:36:48.791Z,12.38
2023-03-08T13:38:23.178Z,13.02
2023-03-08T13:39:57.419Z,12.65
2023-03-08T13:41:34.804Z,11.60
2023-03-08T13:43:08.497Z,11.75
2023-03-08T13:44:41.272Z,13.45
2023-03-08T13:46:17.136Z,13.00
2023-03-08T13:47:50.178Z,12.00
2023-03-08T13:49:25.094Z,11.18
2023-03-08T13:50:59.365Z,11.38
2023-03-08T13:52:37.262Z,10.57
2023-03-08T13:54:16.300Z,9.80
2023-03-08T13:55:51.969Z,9.95
2023-03-08T13:57:27.697Z,10.90
2023-03-08T13:59:01.476Z,9.57
2023-03-08T14:00:36.061Z,10.43
2023-03-08T14:02:19.953Z,10.35
2023-03-08T14:03:54.916Z,11.13
2023-03-08T14:05:29.614Z,10.63
2023-03-08T14:07:05.507Z,10.68
2023-03-08T14:08:40.120Z,10.73
2023-03-08T14:10:14.452Z,13.77
2023-03-08T14:11:54.559Z,12.35
2023-03-08T14:13:30.516Z,10.63
2023-03-08T14:15:05.783Z,8.43
2023-03-08T14:16:41.856Z,9.00
2023-03-08T14:18:22.796Z,10.32
2023-03-08T14:19:57.456Z,11.25
2023-03-08T14:21:31.068Z,14.15
2023-03-08T14:23:03.889Z,15.35
2023-03-08T14:24:38.365Z,13.23
2023-03-08T14:26:32.451Z,19.67
2023-03-08T14:28:06.275Z,13.75
2023-03-08T14:29:39.056Z,11.90
2023-03-08T14:31:28.441Z,11.82
2023-03-08T14:33:08.023Z,10.77
2023-03-08T14:34:42.423Z,9.48
2023-03-08T14:36:16.375Z,9.35
2023-03-08T14:37:49.173Z,9.88
2023-03-08T14:39:24.100Z,9.50
2023-03-08T14:40:59.888Z,10.23
2023-03-08T14:42:41.366Z,11.30
2023-03-08T14:44:20.683Z,13.57
2023-03-08T14:45:56.025Z,15.18
2023-03-08T14:47:30.817Z,16.13
2023-03-08T14:49:06.178Z,14.95
2023-03-08T14:50:38.970Z,12.68
2023-03-08T14:52:21.128Z,13.35
2023-03-08T14:53:59.421Z,12.50
2023-03-08T14:55:34.909Z,14.73
2023-03-08T14:57:18.487Z,14.88
2023-03-08T14:58:53.757Z,14.32
2023-03-08T15:00:28.907Z,12.02
2023-03-08T15:02:01.645Z,14.65
2023-03-08T15:03:34.751Z,15.52
2023-03-08T15:05:14.148Z,16.98
2023-03-08T15:06:48.356Z,16.45
2023-03-08T15:08:21.650Z,17.00
2023-03-08T15:09:54.404Z,15.15
2023-03-08T15:11:31.242Z,16.10
2023-03-08T15:13:06.393Z,16.88
2023-03-08T15:14:39.176Z,16.80
2023-03-08T15:16:14.370Z,19.45
2023-03-08T15:17:47.521Z,16.88
2023-03-08T15:19:20.247Z,17.55
2023-03-08T15:20:53.122Z,16.10
2023-03-08T15:22:25.876Z,16.58
2023-03-08T15:23:59.463Z,16.95
2023-03-08T15:25:35.914Z,15.95
2023-03-08T15:27:11.172Z,13.95
2023-03-08T15:28:45.204Z,14.15
2023-03-08T15:30:20.277Z,13.77
2023-03-08T15:31:53.241Z,15.38
2023-03-08T15:33:25.991Z,14.75
2023-03-08T15:34:58.683Z,14.80
2023-03-08T15:36:34.686Z,12.43
2023-03-08T15:38:07.831Z,12.98
2023-03-08T15:39:40.551Z,13.38
2023-03-08T15:41:13.943Z,16.48
2023-03-08T15:42:46.719Z,17.35
2023-03-08T15:44:20.855Z,18.70
2023-03-08T15:45:53.569Z,19.00
2023-03-08T15:47:26.285Z,18.55
2023-03-08T15:48:59.233Z,19.95
2023-03-08T15:50:33.109Z,15.93
2023-03-08T15:52:08.634Z,13.80
2023-03-08T15:53:41.518Z,11.65
2023-03-08T15:55:15.227Z,10.27
2023-03-08T15:56:47.934Z,12.10
2023-03-08T15:58:20.633Z,10.30
2023-03-08T15:59:54.684Z,10.85
2023-03-08T16:01:28.206Z,10.10
2023-03-08T16:03:01.145Z,9.88
2023-03-08T16:04:33.944Z,11.02
2023-03-08T16:06:10.226Z,9.80
2023-03-08T16:07:43.354Z,12.10
2023-03-08T16:09:16.049Z,9.80
2023-03-08T16:10:48.735Z,10.15
2023-03-08T16:12:21.434Z,10.70
2023-03-08T16:13:54.522Z,10.50
2023-03-08T16:15:29.036Z,18.33
2023-03-08T16:17:01.816Z,21.08
2023-03-08T16:18:35.752Z,15.20
2023-03-08T16:20:09.956Z,15.73
2023-03-08T16:21:42.706Z,15.73
2023-03-08T16:23:15.451Z,11.73
2023-03-08T16:24:48.401Z,12.52
2023-03-08T16:26:21.806Z,11.88
2023-03-08T16:27:54.626Z,9.85
2023-03-08T16:29:27.718Z,10.55
2023-03-08T16:31:01.747Z,9.77
2023-03-08T16:32:35.408Z,11.38
2023-03-08T16:34:08.161Z,9.27
2023-03-08T16:35:41.804Z,7.97
2023-03-08T16:37:14.562Z,14.98
2023-03-08T16:38:47.267Z,36.88
2023-03-08T16:40:20.054Z,33.95
2023-03-08T16:41:53.065Z,21.15
2023-03-08T16:43:28.220Z,20.38
2023-03-08T16:45:03.075Z,18.05
2023-03-08T16:46:37.289Z,16.58
2023-03-08T16:48:10.008Z,16.17
2023-03-08T16:49:42.928Z,14.30
2023-03-08T16:51:17.347Z,14.32
2023-03-08T16:52:55.064Z,13.20
2023-03-08T16:54:27.832Z,13.30
2023-03-08T16:56:00.529Z,12.27
2023-03-08T16:57:33.316Z,9.55
2023-03-08T16:59:06.169Z,9.30
2023-03-08T17:00:39.009Z,9.40
2023-03-08T17:02:15.787Z,8.52
2023-03-08T17:03:49.033Z,7.30
2023-03-08T17:05:21.770Z,9.35
2023-03-08T17:06:54.497Z,7.22
2023-03-08T17:08:27.174Z,8.05
2023-03-08T17:09:59.977Z,6.75
2023-03-08T17:11:34.294Z,7.28
2023-03-08T17:13:07.028Z,8.15
2023-03-08T17:14:41.008Z,10.75
2023-03-08T17:16:13.974Z,14.50
2023-03-08T17:17:48.121Z,19.02
2023-03-08T17:19:20.918Z,21.42
2023-03-08T17:20:54.274Z,22.60
2023-03-08T17:22:27.178Z,18.00
2023-03-08T17:24:00.790Z,20.70
2023-03-08T17:25:35.337Z,17.35
2023-03-08T17:27:08.046Z,18.67
2023-03-08T17:28:41.580Z,14.45
2023-03-08T17:30:15.880Z,16.08
2023-03-08T17:31:48.841Z,14.48
2023-03-08T17:33:25.866Z,13.48
2023-03-08T17:34:58.822Z,16.85
2023-03-08T17:36:31.741Z,14.77
2023-03-08T17:38:04.634Z,18.00
2023-03-08T17:39:37.363Z,13.68
2023-03-08T17:41:13.775Z,11.25
2023-03-08T17:42:47.090Z,10.60
2023-03-08T17:44:19.777Z,12.18
2023-03-08T17:45:59.340Z,11.73
2023-03-08T17:47:32.074Z,14.25
2023-03-08T17:49:06.305Z,23.55
2023-03-08T17:50:39.032Z,24.35
2023-03-08T17:52:11.792Z,30.80
2023-03-08T17:53:45.919Z,30.15
2023-03-08T17:55:18.761Z,30.30
2023-03-08T17:56:51.537Z,27.65
2023-03-08T17:58:24.217Z,23.02
2023-03-08T17:59:57.093Z,32.83
2023-03-08T18:01:31.713Z,29.20
2023-03-08T18:03:04.676Z,23.65
2023-03-08T18:04:38.776Z,21.70
2023-03-08T18:06:19.642Z,22.85
2023-03-08T18:07:52.355Z,30.77
2023-03-08T18:09:25.089Z,23.38
2023-03-08T18:10:57.908Z,19.73
2023-03-08T18:12:31.036Z,20.80
2023-03-08T18:14:04.188Z,22.00
2023-03-08T18:15:36.938Z,21.23
2023-03-08T18:17:11.270Z,18.63
2023-03-08T18:18:45.598Z,15.82
2023-03-08T18:20:20.240Z,17.50
2023-03-08T18:21:54.917Z,21.52
2023-03-08T18:23:29.647Z,17.77
2023-03-08T18:25:02.371Z,17.55
2023-03-08T18:26:35.124Z,15.40
2023-03-08T18:28:08.176Z,16.85
2023-03-08T18:29:40.903Z,16.17
2023-03-08T18:31:17.180Z,15.02
2023-03-08T18:32:50.539Z,14.93
2023-03-08T18:34:23.292Z,15.65
2023-03-08T18:36:00.548Z,14.48
2023-03-08T18:37:33.484Z,15.88
2023-03-08T18:39:07.899Z,16.95
2023-03-08T18:40:40.650Z,16.20
2023-03-08T18:42:14.652Z,18.88
2023-03-08T18:43:47.357Z,16.38
2023-03-08T18:45:20.083Z,16.23
2023-03-08T18:46:52.834Z,16.58
2023-03-08T18:48:25.675Z,14.73
2023-03-08T18:49:58.372Z,16.85
2023-03-08T18:51:33.645Z,12.65
2023-03-08T18:53:06.334Z,13.07
2023-03-08T18:54:39.102Z,11.43
2023-03-08T18:56:11.889Z,10.68
2023-03-08T18:57:44.596Z,8.65
2023-03-08T18:59:17.482Z,11.30
2023-03-08T19:00:51.307Z,11.60
2023-03-08T19:02:27.554Z,8.40
2023-03-08T19:04:03.887Z,8.48
2023-03-08T19:05:36.650Z,7.22
2023-03-08T19:07:10.888Z,7.57
2023-03-08T19:08:44.281Z,7.63
2023-03-08T19:10:17.319Z,7.15
2023-03-08T19:11:50.098Z,6.35
2023-03-08T19:13:22.924Z,7.20
2023-03-08T19:14:55.619Z,6.07
2023-03-08T19:16:29.944Z,5.00
2023-03-08T19:18:02.747Z,4.70
2023-03-08T19:19:35.513Z,5.47
2023-03-08T19:21:15.012Z,6.57
2023-03-08T19:22:49.025Z,5.07
2023-03-08T19:24:22.505Z,5.97
2023-03-08T19:26:12.133Z,5.28
2023-03-08T19:27:44.924Z,6.75
2023-03-08T19:29:19.137Z,5.00
2023-03-08T19:30:51.915Z,4.65
2023-03-08T19:32:24.688Z,5.00
2023-03-08T19:33:57.670Z,4.10
2023-03-08T19:35:30.377Z,3.28
2023-03-08T19:37:03.807Z,3.45
2023-03-08T19:38:37.814Z,3.55
2023-03-08T19:40:11.796Z,3.38
2023-03-08T19:41:45.110Z,2.97
2023-03-08T19:43:17.887Z,3.75
2023-03-08T19:44:52.557Z,3.40
2023-03-08T19:46:25.464Z,4.32
2023-03-08T19:47:58.184Z,4.47
2023-03-08T19:49:33.050Z,3.65
2023-03-08T19:51:05.848Z,3.65
2023-03-08T19:52:38.545Z,3.15
2023-03-08T19:54:12.603Z,2.15
2023-03-08T19:55:50.101Z,2.17
2023-03-08T19:57:22.820Z,1.77
2023-03-08T19:58:57.084Z,1.27
2023-03-08T20:00:29.823Z,1.77
2023-03-08T20:02:02.542Z,2.28
2023-03-08T20:03:35.493Z,1.67
2023-03-08T20:05:08.758Z,1.10
2023-03-08T20:06:45.968Z,1.25
2023-03-08T20:08:18.994Z,1.85
2023-03-08T20:09:54.517Z,1.40
2023-03-08T20:11:27.435Z,1.30
2023-03-08T20:13:00.143Z,1.20
2023-03-08T20:14:32.860Z,1.30
2023-03-08T20:16:06.367Z,1.00
2023-03-08T20:17:39.292Z,1.60
2023-03-08T20:19:12.081Z,1.55
2023-03-08T20:20:44.959Z,1.45
2023-03-08T20:22:17.684Z,1.60
2023-03-08T20:23:55.253Z,1.70
2023-03-08T20:25:29.305Z,1.80
2023-03-08T20:27:03.963Z,1.67
2023-03-08T20:28:36.866Z,1.55
2023-03-08T20:30:11.799Z,1.73
2023-03-08T20:31:47.947Z,2.25
2023-03-08T20:33:20.722Z,1.50
2023-03-08T20:34:53.429Z,1.50